createdAt,value
2017-11-21T00:00:10.133Z,10.78
2017-11-21T00:01:10.111Z,10.78
2017-11-21T00:02:10.366Z,10.78
2017-11-21T00:03:10.344Z,10.73
2017-11-21T00:04:10.532Z,10.83
2017-11-21T00:05:09.780Z,10.83
2017-11-21T00:06:10.022Z,10.76
2017-11-21T00:07:10.022Z,10.84
2017-11-21T00:08:10.256Z,10.84
2017-11-21T00:09:10.008Z,10.76
2017-11-21T00:10:09.946Z,10.84
2017-11-21T00:11:09.934Z,10.78
2017-11-21T00:12:09.922Z,10.81
2017-11-21T00:13:09.905Z,10.86
2017-11-21T00:14:09.616Z,10.86
2017-11-21T00:15:10.133Z,10.8
2017-11-21T00:16:09.846Z,10.88
2017-11-21T00:17:10.100Z,10.88
2017-11-21T00:18:09.543Z,10.84
2017-11-21T00:19:09.528Z,10.88
2017-11-21T00:20:09.776Z,10.83
2017-11-21T00:21:09.759Z,10.86
2017-11-21T00:22:09.745Z,10.81
2017-11-21T00:23:09.726Z,10.95
2017-11-21T00:24:09.708Z,10.91
2017-11-21T00:25:09.960Z,10.91
2017-11-21T00:26:09.682Z,10.86
2017-11-21T00:27:09.667Z,10.91
2017-11-21T00:28:09.918Z,10.98
2017-11-21T00:29:09.898Z,10.92
2017-11-21T00:30:09.900Z,10.95
2017-11-21T00:31:09.319Z,10.92
2017-11-21T00:32:09.564Z,10.95
2017-11-21T00:33:09.555Z,10.92
2017-11-21T00:34:09.534Z,10.94
2017-11-21T00:35:09.785Z,10.96
2017-11-21T00:36:09.501Z,10.91
2017-11-21T00:37:09.754Z,10.98
2017-11-21T00:38:09.507Z,10.95
2017-11-21T00:39:09.180Z,10.92
2017-11-21T00:40:09.433Z,10.96
2017-11-21T00:41:09.689Z,11.02
2017-11-21T00:42:09.132Z,10.96
2017-11-21T00:43:09.646Z,10.95
2017-11-21T00:44:09.097Z,11.01
2017-11-21T00:45:09.357Z,11.01
2017-11-21T00:46:09.595Z,11.01
2017-11-21T00:47:09.312Z,10.94
2017-11-21T00:48:09.569Z,10.98
2017-11-21T00:49:09.007Z,10.98
2017-11-21T00:50:09.531Z,10.98
2017-11-21T00:51:09.252Z,11.02
2017-11-21T00:52:09.226Z,10.99
2017-11-21T00:53:08.939Z,11.03
2017-11-21T00:54:09.463Z,11.02
2017-11-21T00:55:09.446Z,11.02
2017-11-21T00:56:09.163Z,11.03
2017-11-21T00:57:09.411Z,11.01
2017-11-21T00:58:09.123Z,11.03
2017-11-21T00:59:09.111Z,10.96
2017-11-21T01:00:09.404Z,11.02
2017-11-21T01:01:09.347Z,11.03
2017-11-21T01:02:09.341Z,10.99
2017-11-21T01:03:09.031Z,11.03
2017-11-21T01:04:09.024Z,11.02
2017-11-21T01:05:09.000Z,11.06
2017-11-21T01:06:08.715Z,10.95
2017-11-21T01:07:08.702Z,11.01
2017-11-21T01:08:08.957Z,11.01
2017-11-21T01:09:08.668Z,11.01
2017-11-21T01:10:08.931Z,11.03
2017-11-21T01:11:08.916Z,11.01
2017-11-21T01:12:08.898Z,10.96
2017-11-21T01:13:09.136Z,10.96
2017-11-21T01:14:08.582Z,11.06
2017-11-21T01:15:09.106Z,11.09
2017-11-21T01:16:08.821Z,11.09
2017-11-21T01:17:08.526Z,10.98
2017-11-21T01:18:09.068Z,11.09
2017-11-21T01:19:09.033Z,11.1
2017-11-21T01:20:08.746Z,11.02
2017-11-21T01:21:08.732Z,11.1
2017-11-21T01:22:08.443Z,11.01
2017-11-21T01:23:08.426Z,11.11
2017-11-21T01:24:08.959Z,11.06
2017-11-21T01:25:08.663Z,11.09
2017-11-21T01:26:08.910Z,11.1
2017-11-21T01:27:08.634Z,11.14
2017-11-21T01:28:08.889Z,11.11
2017-11-21T01:29:08.868Z,11.11
2017-11-21T01:30:08.306Z,11.2
2017-11-21T01:31:08.830Z,11.14
2017-11-21T01:32:08.813Z,11.17
2017-11-21T01:33:08.795Z,11.14
2017-11-21T01:34:08.245Z,11.13
2017-11-21T01:35:08.494Z,11.13
2017-11-21T01:36:08.755Z,11.1
2017-11-21T01:37:08.732Z,11.11
2017-11-21T01:38:08.712Z,11.11
2017-11-21T01:39:08.690Z,11.11
2017-11-21T01:40:08.407Z,11.13
2017-11-21T01:41:08.391Z,11.1
2017-11-21T01:42:08.651Z,11.16
2017-11-21T01:43:08.357Z,11.1
2017-11-21T01:44:08.075Z,11.13
2017-11-21T01:45:08.325Z,11.13
2017-11-21T01:46:08.348Z,11.13
2017-11-21T01:47:08.024Z,11.16
2017-11-21T01:48:08.011Z,11.09
2017-11-21T01:49:07.990Z,11.16
2017-11-21T01:50:08.245Z,11.11
2017-11-21T01:51:07.960Z,11.14
2017-11-21T01:52:07.946Z,11.1
2017-11-21T01:53:08.458Z,11.14
2017-11-21T01:54:08.439Z,11.09
2017-11-21T01:55:08.424Z,11.11
2017-11-21T01:56:08.152Z,11.13
2017-11-21T01:57:08.435Z,11.19
2017-11-21T01:58:08.387Z,11.1
2017-11-21T01:59:08.361Z,11.17
2017-11-21T02:00:08.072Z,11.09
2017-11-21T02:01:08.327Z,11.13
2017-11-21T02:02:08.038Z,11.1
2017-11-21T02:03:08.314Z,11.16
2017-11-21T02:04:08.208Z,11.11
2017-11-21T02:05:08.000Z,11.13
2017-11-21T02:06:07.982Z,11.1
2017-11-21T02:07:07.954Z,11.14
2017-11-21T02:08:07.943Z,11.13
2017-11-21T02:09:07.925Z,11.06
2017-11-21T02:10:08.205Z,11.13
2017-11-21T02:11:08.166Z,11.2
2017-11-21T02:12:07.874Z,11.11
2017-11-21T02:13:08.127Z,11.2
2017-11-21T02:14:07.834Z,11.17
2017-11-21T02:15:08.115Z,11.21
2017-11-21T02:16:07.800Z,11.09
2017-11-21T02:17:07.803Z,11.09
2017-11-21T02:18:08.036Z,11.09
2017-11-21T02:19:07.765Z,11.06
2017-11-21T02:20:07.739Z,11.17
2017-11-21T02:21:07.765Z,11.11
2017-11-21T02:22:07.430Z,11.1
2017-11-21T02:23:07.952Z,11.14
2017-11-21T02:24:07.673Z,11.11
2017-11-21T02:25:07.932Z,11.11
2017-11-21T02:26:07.370Z,11.13
2017-11-21T02:27:07.623Z,11.1
2017-11-21T02:28:07.864Z,11.13
2017-11-21T02:29:07.586Z,11.13
2017-11-21T02:30:07.566Z,11.13
2017-11-21T02:31:07.553Z,11.19
2017-11-21T02:32:07.553Z,11.1
2017-11-21T02:33:07.783Z,11.13
2017-11-21T02:34:07.769Z,11.16
2017-11-21T02:35:07.780Z,11.17
2017-11-21T02:36:07.748Z,11.09
2017-11-21T02:37:07.178Z,11.2
2017-11-21T02:38:07.182Z,11.13
2017-11-21T02:39:07.692Z,11.13
2017-11-21T02:40:07.403Z,11.17
2017-11-21T02:41:07.393Z,11.14
2017-11-21T02:42:07.375Z,11.13
2017-11-21T02:43:07.082Z,11.14
2017-11-21T02:44:07.328Z,11.1
2017-11-21T02:45:08.594Z,11.16
2017-11-21T02:46:07.302Z,11.19
2017-11-21T02:47:07.552Z,11.2
2017-11-21T02:48:07.545Z,11.19
2017-11-21T02:49:06.978Z,11.19
2017-11-21T02:50:06.962Z,11.17
2017-11-21T02:51:07.223Z,11.21
2017-11-21T02:52:07.209Z,11.2
2017-11-21T02:53:07.463Z,11.2
2017-11-21T02:54:07.169Z,11.2
2017-11-21T02:55:07.160Z,11.21
2017-11-21T02:56:06.856Z,11.25
2017-11-21T02:57:07.382Z,11.21
2017-11-21T02:58:07.111Z,11.21
2017-11-21T02:59:07.083Z,11.21
2017-11-21T03:00:07.088Z,11.21
2017-11-21T03:01:07.045Z,11.29
2017-11-21T03:02:07.027Z,11.29
2017-11-21T03:03:07.007Z,11.29
2017-11-21T03:04:06.727Z,11.29
2017-11-21T03:05:07.251Z,11.25
2017-11-21T03:06:06.697Z,11.31
2017-11-21T03:07:06.676Z,11.2
2017-11-21T03:08:06.928Z,11.29
2017-11-21T03:09:06.644Z,11.28
2017-11-21T03:10:06.900Z,11.28
2017-11-21T03:11:06.876Z,11.28
2017-11-21T03:12:06.868Z,11.27
2017-11-21T03:13:06.849Z,11.27
2017-11-21T03:14:06.833Z,11.31
2017-11-21T03:15:07.098Z,11.25
2017-11-21T03:16:06.797Z,11.28
2017-11-21T03:17:07.047Z,11.27
2017-11-21T03:18:06.763Z,11.28
2017-11-21T03:19:06.743Z,11.29
2017-11-21T03:20:06.726Z,11.28
2017-11-21T03:21:06.709Z,11.27
2017-11-21T03:22:06.690Z,11.31
2017-11-21T03:23:06.678Z,11.28
2017-11-21T03:24:06.669Z,11.31
2017-11-21T03:25:06.912Z,11.25
2017-11-21T03:26:06.908Z,11.27
2017-11-21T03:27:06.342Z,11.28
2017-11-21T03:28:06.606Z,11.31
2017-11-21T03:29:06.846Z,11.28
2017-11-21T03:30:06.566Z,11.25
2017-11-21T03:31:06.555Z,11.27
2017-11-21T03:32:06.533Z,11.29
2017-11-21T03:33:06.508Z,11.27
2017-11-21T03:34:06.759Z,11.29
2017-11-21T03:35:06.743Z,11.27
2017-11-21T03:36:06.188Z,11.27
2017-11-21T03:37:06.727Z,11.31
2017-11-21T03:38:06.153Z,11.35
2017-11-21T03:39:06.148Z,11.31
2017-11-21T03:40:06.662Z,11.35
2017-11-21T03:41:06.375Z,11.34
2017-11-21T03:42:06.365Z,11.31
2017-11-21T03:43:06.076Z,11.38
2017-11-21T03:44:06.324Z,11.49
2017-11-21T03:45:06.042Z,11.36
2017-11-21T03:46:06.565Z,11.31
2017-11-21T03:47:06.545Z,11.41
2017-11-21T03:48:06.265Z,11.31
2017-11-21T03:49:06.248Z,11.34
2017-11-21T03:50:06.229Z,11.34
2017-11-21T03:51:06.483Z,11.38
2017-11-21T03:52:06.498Z,11.35
2017-11-21T03:53:05.904Z,11.35
2017-11-21T03:54:06.156Z,11.29
2017-11-21T03:55:06.144Z,11.43
2017-11-21T03:56:06.400Z,11.31
2017-11-21T03:57:06.385Z,11.35
2017-11-21T03:58:06.358Z,11.35
2017-11-21T03:59:06.343Z,11.36
2017-11-21T04:00:06.329Z,11.28
2017-11-21T04:01:06.310Z,11.36
2017-11-21T04:02:06.024Z,11.35
2017-11-21T04:03:06.285Z,11.41
2017-11-21T04:04:06.464Z,11.35
2017-11-21T04:05:06.243Z,11.32
2017-11-21T04:06:06.243Z,11.39
2017-11-21T04:07:06.219Z,11.31
2017-11-21T04:08:05.939Z,11.35
2017-11-21T04:09:06.190Z,11.41
2017-11-21T04:10:05.898Z,11.34
2017-11-21T04:11:05.886Z,11.43
2017-11-21T04:12:05.862Z,11.39
2017-11-21T04:13:05.845Z,11.28
2017-11-21T04:14:05.555Z,11.34
2017-11-21T04:15:05.816Z,11.28
2017-11-21T04:16:06.094Z,11.34
2017-11-21T04:17:05.776Z,11.39
2017-11-21T04:18:05.758Z,11.46
2017-11-21T04:19:06.007Z,11.38
2017-11-21T04:20:05.726Z,11.39
2017-11-21T04:21:05.735Z,11.39
2017-11-21T04:22:05.430Z,11.44
2017-11-21T04:23:05.946Z,11.36
2017-11-21T04:24:05.660Z,11.34
2017-11-21T04:25:05.378Z,11.41
2017-11-21T04:26:05.634Z,11.38
2017-11-21T04:27:05.649Z,11.36
2017-11-21T04:28:05.862Z,11.47
2017-11-21T04:29:05.603Z,11.38
2017-11-21T04:30:05.846Z,11.41
2017-11-21T04:31:05.309Z,11.39
2017-11-21T04:32:05.258Z,11.38
2017-11-21T04:33:05.512Z,11.35
2017-11-21T04:34:05.808Z,11.43
2017-11-21T04:35:05.496Z,11.38
2017-11-21T04:36:05.732Z,11.38
2017-11-21T04:37:05.481Z,11.38
2017-11-21T04:38:05.160Z,11.39
2017-11-21T04:39:05.142Z,11.35
2017-11-21T04:40:05.130Z,11.31
2017-11-21T04:41:05.390Z,11.41
2017-11-21T04:42:05.359Z,11.36
2017-11-21T04:43:05.351Z,11.41
2017-11-21T04:44:05.599Z,11.36
2017-11-21T04:45:05.045Z,11.36
2017-11-21T04:46:05.290Z,11.38
2017-11-21T04:47:05.578Z,11.32
2017-11-21T04:48:05.261Z,11.38
2017-11-21T04:49:05.277Z,11.39
2017-11-21T04:50:04.970Z,11.41
2017-11-21T04:51:04.944Z,11.43
2017-11-21T04:52:05.199Z,11.31
2017-11-21T04:53:05.180Z,11.36
2017-11-21T04:54:05.161Z,11.35
2017-11-21T04:55:05.417Z,11.35
2017-11-21T04:56:05.399Z,11.32
2017-11-21T04:57:05.401Z,11.43
2017-11-21T04:58:05.103Z,11.39
2017-11-21T04:59:05.083Z,11.36
2017-11-21T05:00:05.068Z,11.35
2017-11-21T05:01:05.323Z,11.36
2017-11-21T05:02:05.029Z,11.41
2017-11-21T05:03:05.284Z,11.31
2017-11-21T05:04:05.265Z,11.39
2017-11-21T05:05:04.980Z,11.36
2017-11-21T05:06:05.236Z,11.47
2017-11-21T05:07:04.952Z,11.43
2017-11-21T05:08:05.218Z,11.38
2017-11-21T05:09:05.205Z,11.36
2017-11-21T05:10:04.900Z,11.41
2017-11-21T05:11:04.611Z,11.41
2017-11-21T05:12:04.594Z,11.41
2017-11-21T05:13:04.578Z,11.43
2017-11-21T05:14:04.827Z,11.35
2017-11-21T05:15:05.097Z,11.39
2017-11-21T05:16:04.802Z,11.34
2017-11-21T05:17:04.789Z,11.34
2017-11-21T05:18:04.499Z,11.41
2017-11-21T05:19:05.023Z,11.5
2017-11-21T05:20:05.007Z,11.44
2017-11-21T05:21:04.718Z,11.39
2017-11-21T05:22:04.427Z,11.41
2017-11-21T05:23:04.955Z,11.44
2017-11-21T05:24:04.935Z,11.43
2017-11-21T05:25:04.947Z,11.32
2017-11-21T05:26:04.369Z,11.34
2017-11-21T05:27:04.354Z,11.35
2017-11-21T05:28:04.612Z,11.46
2017-11-21T05:29:04.854Z,11.43
2017-11-21T05:30:04.579Z,11.43
2017-11-21T05:31:04.554Z,11.47
2017-11-21T05:32:04.536Z,11.39
2017-11-21T05:33:04.786Z,11.46
2017-11-21T05:34:04.231Z,11.5
2017-11-21T05:35:04.504Z,11.39
2017-11-21T05:36:04.204Z,11.43
2017-11-21T05:37:04.452Z,11.44
2017-11-21T05:38:04.452Z,11.43
2017-11-21T05:39:04.432Z,11.46
2017-11-21T05:40:04.408Z,11.41
2017-11-21T05:41:04.385Z,11.44
2017-11-21T05:42:04.101Z,11.43
2017-11-21T05:43:04.631Z,11.41
2017-11-21T05:44:04.342Z,11.43
2017-11-21T05:45:04.600Z,11.47
2017-11-21T05:46:04.596Z,11.46
2017-11-21T05:47:04.568Z,11.44
2017-11-21T05:48:04.284Z,11.41
2017-11-21T05:49:04.525Z,11.47
2017-11-21T05:50:04.245Z,11.5
2017-11-21T05:51:04.223Z,11.49
2017-11-21T05:52:04.212Z,11.5
2017-11-21T05:53:04.463Z,11.44
2017-11-21T05:54:03.901Z,11.47
2017-11-21T05:55:04.433Z,11.56
2017-11-21T05:56:04.416Z,11.52
2017-11-21T05:57:04.127Z,11.52
2017-11-21T05:58:04.111Z,11.53
2017-11-21T05:59:04.092Z,11.56
2017-11-21T06:00:04.075Z,11.54
2017-11-21T06:01:04.065Z,11.44
2017-11-21T06:02:03.772Z,11.47
2017-11-21T06:03:04.036Z,11.5
2017-11-21T06:04:04.485Z,11.47
2017-11-21T06:05:04.001Z,11.57
2017-11-21T06:06:03.709Z,11.59
2017-11-21T06:07:03.960Z,11.44
2017-11-21T06:08:04.219Z,11.52
2017-11-21T06:09:03.930Z,11.46
2017-11-21T06:10:03.642Z,11.52
2017-11-21T06:11:03.629Z,11.56
2017-11-21T06:12:03.619Z,11.54
2017-11-21T06:13:04.165Z,11.49
2017-11-21T06:14:03.844Z,11.5
2017-11-21T06:15:03.564Z,11.43
2017-11-21T06:16:03.812Z,11.49
2017-11-21T06:17:04.068Z,11.5
2017-11-21T06:18:04.044Z,11.41
2017-11-21T06:19:03.498Z,11.39
2017-11-21T06:20:03.766Z,11.5
2017-11-21T06:21:04.009Z,11.52
2017-11-21T06:22:03.713Z,11.43
2017-11-21T06:23:03.701Z,11.44
2017-11-21T06:24:03.688Z,11.5
2017-11-21T06:25:03.663Z,11.53
2017-11-21T06:26:03.646Z,11.54
2017-11-21T06:27:03.628Z,11.57
2017-11-21T06:28:03.612Z,11.53
2017-11-21T06:29:03.601Z,11.44
2017-11-21T06:30:03.876Z,11.47
2017-11-21T06:31:03.838Z,11.49
2017-11-21T06:32:03.549Z,11.52
2017-11-21T06:33:03.539Z,11.53
2017-11-21T06:34:03.523Z,11.53
2017-11-21T06:35:03.500Z,11.47
2017-11-21T06:36:03.487Z,11.52
2017-11-21T06:37:03.468Z,11.5
2017-11-21T06:38:03.724Z,11.49
2017-11-21T06:39:03.711Z,11.57
2017-11-21T06:40:03.415Z,11.52
2017-11-21T06:41:03.149Z,11.56
2017-11-21T06:42:03.118Z,11.44
2017-11-21T06:43:03.379Z,11.52
2017-11-21T06:44:03.375Z,11.53
2017-11-21T06:45:03.616Z,11.46
2017-11-21T06:46:03.588Z,11.49
2017-11-21T06:47:03.581Z,11.56
2017-11-21T06:48:03.561Z,11.52
2017-11-21T06:49:03.281Z,11.53
2017-11-21T06:50:03.525Z,11.56
2017-11-21T06:51:02.967Z,11.56
2017-11-21T06:52:03.239Z,11.46
2017-11-21T06:53:03.472Z,11.46
2017-11-21T06:54:03.453Z,11.52
2017-11-21T06:55:03.183Z,11.5
2017-11-21T06:56:03.160Z,11.43
2017-11-21T06:57:03.409Z,11.43
2017-11-21T06:58:03.124Z,11.46
2017-11-21T06:59:03.379Z,11.46
2017-11-21T07:00:03.360Z,11.39
2017-11-21T07:01:03.360Z,11.44
2017-11-21T07:02:03.326Z,11.46
2017-11-21T07:03:03.045Z,11.41
2017-11-21T07:04:03.032Z,11.53
2017-11-21T07:05:03.004Z,11.53
2017-11-21T07:06:02.998Z,11.56
2017-11-21T07:07:02.978Z,11.46
2017-11-21T07:08:02.691Z,11.47
2017-11-21T07:09:02.942Z,11.44
2017-11-21T07:10:02.935Z,11.53
2017-11-21T07:11:02.647Z,11.56
2017-11-21T07:12:02.890Z,11.41
2017-11-21T07:13:02.879Z,11.49
2017-11-21T07:14:02.859Z,11.44
2017-11-21T07:15:02.575Z,11.47
2017-11-21T07:16:02.835Z,11.47
2017-11-21T07:17:03.090Z,11.52
2017-11-21T07:18:03.071Z,11.57
2017-11-21T07:19:02.780Z,11.53
2017-11-21T07:20:02.760Z,11.5
2017-11-21T07:21:02.480Z,11.56
2017-11-21T07:22:02.732Z,11.53
2017-11-21T07:23:02.983Z,11.54
2017-11-21T07:24:02.972Z,11.53
2017-11-21T07:25:02.949Z,11.59
2017-11-21T07:26:02.940Z,11.53
2017-11-21T07:27:02.648Z,11.54
2017-11-21T07:28:02.359Z,11.53
2017-11-21T07:29:02.895Z,11.54
2017-11-21T07:30:02.876Z,11.65
2017-11-21T07:31:02.590Z,11.65
2017-11-21T07:32:02.563Z,11.59
2017-11-21T07:33:02.822Z,11.62
2017-11-21T07:34:02.540Z,11.57
2017-11-21T07:35:02.518Z,11.64
2017-11-21T07:36:02.763Z,11.61
2017-11-21T07:37:02.213Z,11.65
2017-11-21T07:38:02.464Z,11.67
2017-11-21T07:39:02.454Z,11.67
2017-11-21T07:40:02.433Z,11.65
2017-11-21T07:41:02.425Z,11.59
2017-11-21T07:42:02.408Z,11.62
2017-11-21T07:43:02.393Z,11.68
2017-11-21T07:44:02.641Z,11.7
2017-11-21T07:45:02.628Z,11.7
2017-11-21T07:46:02.351Z,11.68
2017-11-21T07:47:02.592Z,11.68
2017-11-21T07:48:02.570Z,11.64
2017-11-21T07:49:02.289Z,11.7
2017-11-21T07:50:02.546Z,11.7
2017-11-21T07:51:02.249Z,11.71
2017-11-21T07:52:02.235Z,11.71
2017-11-21T07:53:02.219Z,11.67
2017-11-21T07:54:02.469Z,11.7
2017-11-21T07:55:02.515Z,11.7
2017-11-21T07:56:02.171Z,11.68
2017-11-21T07:57:01.898Z,11.65
2017-11-21T07:58:02.132Z,11.67
2017-11-21T07:59:01.861Z,11.7
2017-11-21T08:00:02.237Z,11.67
2017-11-21T08:01:02.360Z,11.62
2017-11-21T08:02:02.103Z,11.71
2017-11-21T08:03:02.326Z,11.68
2017-11-21T08:04:01.777Z,11.7
2017-11-21T08:05:02.088Z,11.72
2017-11-21T08:06:02.006Z,11.7
2017-11-21T08:07:01.747Z,11.64
2017-11-21T08:08:01.701Z,11.74
2017-11-21T08:09:01.690Z,11.72
2017-11-21T08:10:02.214Z,11.77
2017-11-21T08:11:01.923Z,11.71
2017-11-21T08:12:01.639Z,11.71
2017-11-21T08:13:01.621Z,11.72
2017-11-21T08:14:01.885Z,11.68
2017-11-21T08:15:01.883Z,11.82
2017-11-21T08:16:02.118Z,11.67
2017-11-21T08:17:02.093Z,11.68
2017-11-21T08:18:01.585Z,11.68
2017-11-21T08:19:01.799Z,11.72
2017-11-21T08:20:01.786Z,11.65
2017-11-21T08:21:02.041Z,11.65
2017-11-21T08:22:01.751Z,11.75
2017-11-21T08:23:01.996Z,11.83
2017-11-21T08:24:01.986Z,11.67
2017-11-21T08:25:01.693Z,11.83
2017-11-21T08:26:01.681Z,11.82
2017-11-21T08:27:01.669Z,11.77
2017-11-21T08:28:01.644Z,11.74
2017-11-21T08:29:01.900Z,11.85
2017-11-21T08:30:01.612Z,11.89
2017-11-21T08:31:01.605Z,11.89
2017-11-21T08:32:01.584Z,11.78
2017-11-21T08:33:01.585Z,11.82
2017-11-21T08:34:01.548Z,11.78
2017-11-21T08:35:01.808Z,11.74
2017-11-21T08:36:01.510Z,11.86
2017-11-21T08:37:01.502Z,11.93
2017-11-21T08:38:01.754Z,11.93
2017-11-21T08:39:01.465Z,11.9
2017-11-21T08:40:01.450Z,11.83
2017-11-21T08:41:01.429Z,11.77
2017-11-21T08:42:01.421Z,11.89
2017-11-21T08:43:01.402Z,11.86
2017-11-21T08:44:01.668Z,11.99
2017-11-21T08:45:01.637Z,11.97
2017-11-21T08:46:01.360Z,11.87
2017-11-21T08:47:01.622Z,11.87
2017-11-21T08:48:01.317Z,11.9
2017-11-21T08:49:01.301Z,11.93
2017-11-21T08:50:01.019Z,11.9
2017-11-21T08:51:00.997Z,11.94
2017-11-21T08:52:01.265Z,11.9
2017-11-21T08:53:01.243Z,11.93
2017-11-21T08:54:01.507Z,11.89
2017-11-21T08:55:01.521Z,11.97
2017-11-21T08:56:01.460Z,11.9
2017-11-21T08:57:00.902Z,11.85
2017-11-21T08:58:01.445Z,11.89
2017-11-21T08:59:00.870Z,11.9
2017-11-21T09:00:01.120Z,11.96
2017-11-21T09:01:01.107Z,11.99
2017-11-21T09:02:00.819Z,11.94
2017-11-21T09:03:01.342Z,11.93
2017-11-21T09:04:01.068Z,11.97
2017-11-21T09:05:01.316Z,11.96
2017-11-21T09:06:01.033Z,11.99
2017-11-21T09:07:01.287Z,11.96
2017-11-21T09:08:00.993Z,11.99
2017-11-21T09:09:01.247Z,11.94
2017-11-21T09:10:00.698Z,12.01
2017-11-21T09:11:00.944Z,11.94
2017-11-21T09:12:00.930Z,11.89
2017-11-21T09:13:01.208Z,11.89
2017-11-21T09:14:00.895Z,11.97
2017-11-21T09:15:00.882Z,11.89
2017-11-21T09:16:00.866Z,11.96
2017-11-21T09:17:00.849Z,11.89
2017-11-21T09:18:01.115Z,11.86
2017-11-21T09:19:01.088Z,11.96
2017-11-21T09:20:00.526Z,11.89
2017-11-21T09:21:00.805Z,11.85
2017-11-21T09:22:00.779Z,11.86
2017-11-21T09:23:01.016Z,11.97
2017-11-21T09:24:00.758Z,11.96
2017-11-21T09:25:00.729Z,11.96
2017-11-21T09:26:00.711Z,11.93
2017-11-21T09:27:00.965Z,11.93
2017-11-21T09:28:00.937Z,11.99
2017-11-21T09:29:00.655Z,11.96
2017-11-21T09:30:00.636Z,11.86
2017-11-21T09:31:00.893Z,11.85
2017-11-21T09:32:00.606Z,11.94
2017-11-21T09:33:00.604Z,11.83
2017-11-21T09:34:00.575Z,11.89
2017-11-21T09:35:00.555Z,11.93
2017-11-21T09:36:00.543Z,11.93
2017-11-21T09:37:00.793Z,11.89
2017-11-21T09:38:00.776Z,11.94
2017-11-21T09:39:00.242Z,11.87
2017-11-21T09:40:00.475Z,11.99
2017-11-21T09:41:00.459Z,11.99
2017-11-21T09:42:00.459Z,11.94
2017-11-21T09:43:00.431Z,11.97
2017-11-21T09:44:00.677Z,11.86
2017-11-21T09:45:00.400Z,12.02
2017-11-21T09:46:00.378Z,11.96
2017-11-21T09:47:00.363Z,11.97
2017-11-21T09:48:00.077Z,11.99
2017-11-21T09:49:00.328Z,11.97
2017-11-21T09:50:00.589Z,11.99
2017-11-21T09:51:00.030Z,12.01
2017-11-21T09:52:00.024Z,11.97
2017-11-21T09:53:00.541Z,11.93
2017-11-21T09:54:00.252Z,11.93
2017-11-21T09:55:00.501Z,11.97
2017-11-21T09:56:00.490Z,11.85
2017-11-21T09:57:00.205Z,11.87
2017-11-21T09:58:00.453Z,11.93
2017-11-21T09:59:00.177Z,12.01
2017-11-21T10:00:00.421Z,11.94
2017-11-21T10:01:00.138Z,11.96
2017-11-21T10:02:00.393Z,11.99
2017-11-21T10:02:59.833Z,11.93
2017-11-21T10:04:00.354Z,11.99
2017-11-21T10:05:00.284Z,11.89
2017-11-21T10:06:00.339Z,11.99
2017-11-21T10:07:00.047Z,11.97
2017-11-21T10:08:00.026Z,12.01
2017-11-21T10:08:59.741Z,11.94
2017-11-21T10:10:00.261Z,11.94
2017-11-21T10:10:59.977Z,11.97
2017-11-21T10:11:59.691Z,11.96
2017-11-21T10:13:00.218Z,11.96
2017-11-21T10:13:59.659Z,12.01
2017-11-21T10:15:00.196Z,11.94
2017-11-21T10:16:00.168Z,12.01
2017-11-21T10:17:00.189Z,11.96
2017-11-21T10:18:00.181Z,11.94
2017-11-21T10:18:59.846Z,11.99
2017-11-21T10:20:00.094Z,12.08
2017-11-21T10:21:00.087Z,11.96
2017-11-21T10:21:59.805Z,11.97
2017-11-21T10:22:59.515Z,11.97
2017-11-21T10:23:59.766Z,12.01
2017-11-21T10:25:00.040Z,11.94
2017-11-21T10:25:59.734Z,11.97
2017-11-21T10:26:59.716Z,11.97
2017-11-21T10:27:59.697Z,11.96
2017-11-21T10:28:59.688Z,12.04
2017-11-21T10:29:59.939Z,12.09
2017-11-21T10:30:59.392Z,11.94
2017-11-21T10:31:59.909Z,12.05
2017-11-21T10:32:59.624Z,11.97
2017-11-21T10:33:59.624Z,11.99
2017-11-21T10:34:59.589Z,11.99
2017-11-21T10:35:59.576Z,11.96
2017-11-21T10:36:59.838Z,11.97
2017-11-21T10:37:59.547Z,11.96
2017-11-21T10:38:59.792Z,11.97
2017-11-21T10:39:59.512Z,11.99
2017-11-21T10:40:59.760Z,11.93
2017-11-21T10:41:59.209Z,11.99
2017-11-21T10:42:59.461Z,11.99
2017-11-21T10:43:59.178Z,11.99
2017-11-21T10:44:59.160Z,12.01
2017-11-21T10:45:59.412Z,11.9
2017-11-21T10:46:59.675Z,11.99
2017-11-21T10:47:59.112Z,11.97
2017-11-21T10:48:59.096Z,12.01
2017-11-21T10:49:59.081Z,11.96
2017-11-21T10:50:59.334Z,11.93
2017-11-21T10:51:59.046Z,11.87
2017-11-21T10:52:59.301Z,11.93
2017-11-21T10:53:59.283Z,11.97
2017-11-21T10:54:59.267Z,11.99
2017-11-21T10:55:59.256Z,11.93
2017-11-21T10:56:59.234Z,11.9
2017-11-21T10:57:59.223Z,11.94
2017-11-21T10:58:58.961Z,11.97
2017-11-21T10:59:59.189Z,11.89
2017-11-21T11:00:59.450Z,11.85
2017-11-21T11:01:58.890Z,12.01
2017-11-21T11:02:59.143Z,11.89
2017-11-21T11:03:58.855Z,11.96
2017-11-21T11:04:58.838Z,11.99
2017-11-21T11:05:58.821Z,11.89
2017-11-21T11:06:59.341Z,11.89
2017-11-21T11:07:59.067Z,11.86
2017-11-21T11:08:59.045Z,11.9
2017-11-21T11:09:59.303Z,11.89
2017-11-21T11:10:59.015Z,11.96
2017-11-21T11:11:59.272Z,11.97
2017-11-21T11:12:58.712Z,11.97
2017-11-21T11:13:59.230Z,11.93
2017-11-21T11:14:58.677Z,11.96
2017-11-21T11:15:58.930Z,11.99
2017-11-21T11:16:58.911Z,11.9
2017-11-21T11:17:58.626Z,11.87
2017-11-21T11:18:58.624Z,11.93
2017-11-21T11:19:58.865Z,11.99
2017-11-21T11:20:59.125Z,12.01
2017-11-21T11:21:58.839Z,12.01
2017-11-21T11:22:58.827Z,11.94
2017-11-21T11:23:59.067Z,11.99
2017-11-21T11:24:58.514Z,12.01
2017-11-21T11:25:58.501Z,11.94
2017-11-21T11:26:59.021Z,11.97
2017-11-21T11:27:58.469Z,11.97
2017-11-21T11:28:59.001Z,12.01
2017-11-21T11:29:58.978Z,11.99
2017-11-21T11:30:58.956Z,11.9
2017-11-21T11:31:58.670Z,11.93
2017-11-21T11:32:58.654Z,11.96
2017-11-21T11:33:58.642Z,11.97
2017-11-21T11:34:58.621Z,11.93
2017-11-21T11:35:58.879Z,11.97
2017-11-21T11:36:58.320Z,11.99
2017-11-21T11:37:58.572Z,12.01
2017-11-21T11:38:58.556Z,11.97
2017-11-21T11:39:58.538Z,11.94
2017-11-21T11:40:58.526Z,11.93
2017-11-21T11:41:58.507Z,12.02
2017-11-21T11:42:58.221Z,11.96
2017-11-21T11:43:58.207Z,11.99
2017-11-21T11:44:58.748Z,11.94
2017-11-21T11:45:58.719Z,11.96
2017-11-21T11:46:58.697Z,11.99
2017-11-21T11:47:58.140Z,11.96
2017-11-21T11:48:58.661Z,11.93
2017-11-21T11:49:58.384Z,11.96
2017-11-21T11:50:58.090Z,11.97
2017-11-21T11:51:58.347Z,12.08
2017-11-21T11:52:58.330Z,12.08
2017-11-21T11:53:58.041Z,12.04
2017-11-21T11:54:58.298Z,12.08
2017-11-21T11:55:58.279Z,12.08
2017-11-21T11:56:58.545Z,12.06
2017-11-21T11:57:58.515Z,12.08
2017-11-21T11:58:58.227Z,12.09
2017-11-21T11:59:57.941Z,12.06
2017-11-21T12:00:58.526Z,12.08
2017-11-21T12:01:57.919Z,12.09
2017-11-21T12:02:57.897Z,12.08
2017-11-21T12:03:58.154Z,12.09
2017-11-21T12:04:58.334Z,12.13
2017-11-21T12:05:58.390Z,12.12
2017-11-21T12:06:58.100Z,12.08
2017-11-21T12:07:57.809Z,12.04
2017-11-21T12:08:58.330Z,12.13
2017-11-21T12:09:58.048Z,12.06
2017-11-21T12:10:58.039Z,12.08
2017-11-21T12:11:58.024Z,12.11
2017-11-21T12:12:57.727Z,12.08
2017-11-21T12:13:58.252Z,12.09
2017-11-21T12:14:57.972Z,12.09
2017-11-21T12:15:58.220Z,12.11
2017-11-21T12:16:57.937Z,12.09
2017-11-21T12:17:58.187Z,12.05
2017-11-21T12:18:58.213Z,11.96
2017-11-21T12:19:58.153Z,12.11
2017-11-21T12:20:57.600Z,12.08
2017-11-21T12:21:57.859Z,12.13
2017-11-21T12:22:57.841Z,12.11
2017-11-21T12:23:57.551Z,12.11
2017-11-21T12:24:58.073Z,12.09
2017-11-21T12:25:57.523Z,12.12
2017-11-21T12:26:57.770Z,12.06
2017-11-21T12:27:58.069Z,12.06
2017-11-21T12:28:57.473Z,12.06
2017-11-21T12:29:58.019Z,12.06
2017-11-21T12:30:57.707Z,12.06
2017-11-21T12:31:57.691Z,12.05
2017-11-21T12:32:57.680Z,12.12
2017-11-21T12:33:57.661Z,12.11
2017-11-21T12:34:57.369Z,12.09
2017-11-21T12:35:57.359Z,12.05
2017-11-21T12:36:57.880Z,12.16
2017-11-21T12:37:57.603Z,12.08
2017-11-21T12:38:57.577Z,12.12
2017-11-21T12:39:57.832Z,12.08
2017-11-21T12:40:57.271Z,12.12
2017-11-21T12:41:57.532Z,12.05
2017-11-21T12:42:57.513Z,12.06
2017-11-21T12:43:57.492Z,12.06
2017-11-21T12:44:57.752Z,12.12
2017-11-21T12:45:57.194Z,12.06
2017-11-21T12:46:57.456Z,12.05
2017-11-21T12:47:57.436Z,12.09
2017-11-21T12:48:57.144Z,12.08
2017-11-21T12:49:57.399Z,12.11
2017-11-21T12:50:57.381Z,12.09
2017-11-21T12:51:57.360Z,12.08
2017-11-21T12:52:57.615Z,11.99
2017-11-21T12:53:57.060Z,12.01